FDMS/MTS METAR and TAF weather

Enter ICAO airport designator
Station Type Date Time Source
FDMS METAR 2019/02/22 14:00 UTC NOAA

FDMS 221400Z 10004KT 9999 SCT035 28/19 Q1019 NOSIG


Station Type Date Time Source
FDMS Decoded METAR 2019/02/22 14:00 UTC NOAA

Manzini / Matsapa Airport, Swaziland (FDMS) 26-32S 031-18E
Feb 22, 2019 - 09:00 AM EST / 2019.02.22 1400 UTC
Wind: from the E (100 degrees) at 5 MPH (4 KT):0
Visibility: greater than 7 mile(s):0
Sky conditions: partly cloudy
Temperature: 82 F (28 C)
Dew Point: 66 F (19 C)
Relative Humidity: 58%
Pressure (altimeter): 30.09 in. Hg (1019 hPa)
ob: FDMS 221400Z 10004KT 9999 SCT035 28/19 Q1019 NOSIG
cycle: 14

Station Type Date Time Source
FDMS TAF 2018/11/07 09:00 UTC NOAA

TAF FDMS 070700Z 0709/0718 19007KT 9999 BKN030


Example: see airport list